Portada
METAR-TAF:

METAR-TAF

Aeroports :

Blytheville Municipal Airport

Blytheville, Arkansas, Estats Units d'Amèrica

latitud: 35-56-20N, longitud: 089-49-57W, altitud: 78 m

Observació

L'informe es va fer fa 28 minuts, a les 17:53 UTC
Vent 5 kt amb direcció variable
Temperatura 19°C
Humitat 83%
Pressió 1014 hPa
Visibilitat: 16.1 km
Cel cobert a una alçada de 800 ft

METAR: KHKA 241753Z AUTO VRB05KT 10SM OVC008 19/16 A2993 RMK AO2 SLP135 60016 T01890161 10189 20156 58009 $

Hora: 13:21 (18:21 UTC)


TAF: manca

Observacions i pronòstics meteorològics de més de 4000 aeroports (METAR i TAF).

Les estacions disponibles són els punts grocs i vermells al mapa.

Posi el ratolí al punt desitjat per veure el nom de l'estació.

Feu clic per veure les observacions i els pronòstics meteorològics.

Per canviar el mapa: feu clic els botons verds amb una creu de color negre per apropar; al botó verd amb un guió per allunyar la imatge; o en les fletxes verdes per a mapes adjacents.


METAR-TAF: